sensor_id;sensor_type;location;lat;lon;timestamp;P1;durP1;ratioP1;P2;durP2;ratioP2
6852;SDS011;3465;42.144;24.722;2022-11-15T00:00:23;58.30;;;28.50;;
6852;SDS011;3465;42.144;24.722;2022-11-15T00:02:49;56.60;;;27.30;;
6852;SDS011;3465;42.144;24.722;2022-11-15T00:05:14;56.57;;;27.90;;
6852;SDS011;3465;42.144;24.722;2022-11-15T00:07:40;55.37;;;27.87;;
6852;SDS011;3465;42.144;24.722;2022-11-15T00:10:05;57.70;;;27.80;;
6852;SDS011;3465;42.144;24.722;2022-11-15T00:12:31;58.07;;;28.90;;
6852;SDS011;3465;42.144;24.722;2022-11-15T00:14:56;57.03;;;27.23;;
6852;SDS011;3465;42.144;24.722;2022-11-15T00:17:21;58.90;;;28.37;;
6852;SDS011;3465;42.144;24.722;2022-11-15T00:19:47;56.63;;;28.40;;
6852;SDS011;3465;42.144;24.722;2022-11-15T00:22:12;59.23;;;28.60;;
6852;SDS011;3465;42.144;24.722;2022-11-15T00:24:37;61.70;;;28.67;;
6852;SDS011;3465;42.144;24.722;2022-11-15T00:27:03;58.37;;;28.87;;
6852;SDS011;3465;42.144;24.722;2022-11-15T00:29:28;55.30;;;29.60;;
6852;SDS011;3465;42.144;24.722;2022-11-15T00:31:54;56.00;;;29.87;;
6852;SDS011;3465;42.144;24.722;2022-11-15T00:34:19;55.40;;;28.43;;
6852;SDS011;3465;42.144;24.722;2022-11-15T00:36:44;57.97;;;28.80;;
6852;SDS011;3465;42.144;24.722;2022-11-15T00:39:10;56.30;;;27.00;;
6852;SDS011;3465;42.144;24.722;2022-11-15T00:41:35;54.57;;;27.13;;
6852;SDS011;3465;42.144;24.722;2022-11-15T00:44:00;55.93;;;26.53;;
6852;SDS011;3465;42.144;24.722;2022-11-15T00:46:26;51.50;;;25.17;;
6852;SDS011;3465;42.144;24.722;2022-11-15T00:48:51;54.00;;;26.33;;
6852;SDS011;3465;42.144;24.722;2022-11-15T00:51:17;51.20;;;25.73;;
6852;SDS011;3465;42.144;24.722;2022-11-15T00:53:42;49.30;;;25.80;;
6852;SDS011;3465;42.144;24.722;2022-11-15T00:56:07;46.47;;;23.20;;
6852;SDS011;3465;42.144;24.722;2022-11-15T00:58:33;45.97;;;23.90;;
6852;SDS011;3465;42.144;24.722;2022-11-15T01:01:05;49.53;;;24.63;;
6852;SDS011;3465;42.144;24.722;2022-11-15T01:03:35;48.77;;;23.97;;
6852;SDS011;3465;42.144;24.722;2022-11-15T01:06:02;50.87;;;24.23;;
6852;SDS011;3465;42.144;24.722;2022-11-15T01:08:27;52.97;;;22.83;;
6852;SDS011;3465;42.144;24.722;2022-11-15T01:10:53;48.07;;;23.57;;
6852;SDS011;3465;42.144;24.722;2022-11-15T01:13:18;49.13;;;23.40;;
6852;SDS011;3465;42.144;24.722;2022-11-15T01:15:43;50.57;;;24.57;;
6852;SDS011;3465;42.144;24.722;2022-11-15T01:18:09;56.50;;;28.77;;
6852;SDS011;3465;42.144;24.722;2022-11-15T01:20:38;51.97;;;25.97;;
6852;SDS011;3465;42.144;24.722;2022-11-15T01:23:07;42.50;;;22.53;;
6852;SDS011;3465;42.144;24.722;2022-11-15T01:25:32;50.73;;;23.77;;
6852;SDS011;3465;42.144;24.722;2022-11-15T01:27:57;44.43;;;23.00;;
6852;SDS011;3465;42.144;24.722;2022-11-15T01:30:23;44.53;;;23.57;;
6852;SDS011;3465;42.144;24.722;2022-11-15T01:32:48;46.20;;;24.00;;
6852;SDS011;3465;42.144;24.722;2022-11-15T01:35:14;48.63;;;22.43;;
6852;SDS011;3465;42.144;24.722;2022-11-15T01:37:39;49.87;;;22.40;;
6852;SDS011;3465;42.144;24.722;2022-11-15T01:40:05;45.37;;;22.53;;
6852;SDS011;3465;42.144;24.722;2022-11-15T01:42:30;44.80;;;21.47;;
6852;SDS011;3465;42.144;24.722;2022-11-15T01:44:56;45.07;;;22.00;;
6852;SDS011;3465;42.144;24.722;2022-11-15T01:47:23;45.87;;;21.80;;
6852;SDS011;3465;42.144;24.722;2022-11-15T01:49:57;43.43;;;21.67;;
6852;SDS011;3465;42.144;24.722;2022-11-15T01:52:26;46.10;;;21.57;;
6852;SDS011;3465;42.144;24.722;2022-11-15T01:57:38;43.97;;;21.03;;
6852;SDS011;3465;42.144;24.722;2022-11-15T02:00:06;44.63;;;22.07;;
6852;SDS011;3465;42.144;24.722;2022-11-15T02:02:32;45.13;;;21.33;;
6852;SDS011;3465;42.144;24.722;2022-11-15T02:04:59;41.53;;;20.93;;
6852;SDS011;3465;42.144;24.722;2022-11-15T02:07:24;43.40;;;21.73;;
6852;SDS011;3465;42.144;24.722;2022-11-15T02:09:50;42.57;;;21.13;;
6852;SDS011;3465;42.144;24.722;2022-11-15T02:12:18;45.90;;;20.10;;
6852;SDS011;3465;42.144;24.722;2022-11-15T02:14:47;45.37;;;20.97;;
6852;SDS011;3465;42.144;24.722;2022-11-15T02:39:28;41.40;;;20.47;;
6852;SDS011;3465;42.144;24.722;2022-11-15T02:42:20;43.17;;;19.63;;
6852;SDS011;3465;42.144;24.722;2022-11-15T02:45:09;45.50;;;20.63;;
6852;SDS011;3465;42.144;24.722;2022-11-15T02:47:41;43.93;;;20.70;;
6852;SDS011;3465;42.144;24.722;2022-11-15T02:50:13;46.10;;;20.97;;
6852;SDS011;3465;42.144;24.722;2022-11-15T02:52:44;39.47;;;19.33;;
6852;SDS011;3465;42.144;24.722;2022-11-15T02:55:28;45.47;;;20.40;;
6852;SDS011;3465;42.144;24.722;2022-11-15T03:00:43;46.67;;;22.80;;
6852;SDS011;3465;42.144;24.722;2022-11-15T03:03:41;41.37;;;20.30;;
6852;SDS011;3465;42.144;24.722;2022-11-15T03:09:37;44.93;;;20.73;;
6852;SDS011;3465;42.144;24.722;2022-11-15T03:12:10;39.80;;;19.93;;
6852;SDS011;3465;42.144;24.722;2022-11-15T03:15:04;43.43;;;21.23;;
6852;SDS011;3465;42.144;24.722;2022-11-15T03:17:36;41.57;;;19.27;;
6852;SDS011;3465;42.144;24.722;2022-11-15T03:20:08;41.93;;;20.03;;
6852;SDS011;3465;42.144;24.722;2022-11-15T03:22:37;40.93;;;19.73;;
6852;SDS011;3465;42.144;24.722;2022-11-15T03:25:08;45.50;;;20.73;;
6852;SDS011;3465;42.144;24.722;2022-11-15T03:27:36;42.47;;;20.37;;
6852;SDS011;3465;42.144;24.722;2022-11-15T03:30:07;44.33;;;21.33;;
6852;SDS011;3465;42.144;24.722;2022-11-15T03:32:39;44.60;;;20.50;;
6852;SDS011;3465;42.144;24.722;2022-11-15T03:35:17;39.33;;;19.90;;
6852;SDS011;3465;42.144;24.722;2022-11-15T03:37:57;41.93;;;19.87;;
6852;SDS011;3465;42.144;24.722;2022-11-15T03:40:30;39.93;;;19.40;;
6852;SDS011;3465;42.144;24.722;2022-11-15T03:46:23;44.03;;;21.27;;
6852;SDS011;3465;42.144;24.722;2022-11-15T03:48:49;40.53;;;20.13;;
6852;SDS011;3465;42.144;24.722;2022-11-15T03:51:17;37.70;;;19.20;;
6852;SDS011;3465;42.144;24.722;2022-11-15T03:53:43;44.13;;;20.60;;
6852;SDS011;3465;42.144;24.722;2022-11-15T03:56:08;43.90;;;20.43;;
6852;SDS011;3465;42.144;24.722;2022-11-15T03:58:34;38.80;;;19.93;;
6852;SDS011;3465;42.144;24.722;2022-11-15T04:00:59;45.37;;;20.33;;
6852;SDS011;3465;42.144;24.722;2022-11-15T04:03:25;42.33;;;20.67;;
6852;SDS011;3465;42.144;24.722;2022-11-15T04:05:50;43.77;;;20.90;;
6852;SDS011;3465;42.144;24.722;2022-11-15T04:08:16;41.87;;;20.10;;
6852;SDS011;3465;42.144;24.722;2022-11-15T04:10:41;40.17;;;20.40;;
6852;SDS011;3465;42.144;24.722;2022-11-15T04:13:06;43.13;;;20.20;;
6852;SDS011;3465;42.144;24.722;2022-11-15T04:15:32;40.20;;;20.17;;
6852;SDS011;3465;42.144;24.722;2022-11-15T04:17:58;46.33;;;21.03;;
6852;SDS011;3465;42.144;24.722;2022-11-15T04:25:57;39.63;;;19.77;;
6852;SDS011;3465;42.144;24.722;2022-11-15T04:28:25;39.50;;;20.70;;
6852;SDS011;3465;42.144;24.722;2022-11-15T04:30:50;37.60;;;19.37;;
6852;SDS011;3465;42.144;24.722;2022-11-15T04:33:15;40.93;;;20.03;;
6852;SDS011;3465;42.144;24.722;2022-11-15T04:35:41;38.27;;;18.80;;
6852;SDS011;3465;42.144;24.722;2022-11-15T04:38:08;40.40;;;18.77;;
6852;SDS011;3465;42.144;24.722;2022-11-15T04:40:36;41.03;;;21.00;;
6852;SDS011;3465;42.144;24.722;2022-11-15T04:43:02;49.87;;;23.70;;
6852;SDS011;3465;42.144;24.722;2022-11-15T04:45:28;50.93;;;25.73;;
6852;SDS011;3465;42.144;24.722;2022-11-15T04:47:54;39.23;;;20.40;;
6852;SDS011;3465;42.144;24.722;2022-11-15T04:50:19;39.83;;;20.27;;
6852;SDS011;3465;42.144;24.722;2022-11-15T04:52:52;43.50;;;20.87;;
6852;SDS011;3465;42.144;24.722;2022-11-15T04:55:18;39.07;;;19.40;;
6852;SDS011;3465;42.144;24.722;2022-11-15T04:57:44;35.50;;;18.00;;
6852;SDS011;3465;42.144;24.722;2022-11-15T05:00:14;39.23;;;19.20;;
6852;SDS011;3465;42.144;24.722;2022-11-15T05:02:41;41.10;;;18.73;;
6852;SDS011;3465;42.144;24.722;2022-11-15T05:05:24;38.43;;;18.60;;
6852;SDS011;3465;42.144;24.722;2022-11-15T05:07:50;50.97;;;19.20;;
6852;SDS011;3465;42.144;24.722;2022-11-15T05:10:16;44.27;;;19.70;;
6852;SDS011;3465;42.144;24.722;2022-11-15T05:12:41;47.40;;;19.53;;
6852;SDS011;3465;42.144;24.722;2022-11-15T05:15:07;57.03;;;21.17;;
6852;SDS011;3465;42.144;24.722;2022-11-15T05:17:32;43.27;;;19.77;;
6852;SDS011;3465;42.144;24.722;2022-11-15T05:19:58;44.97;;;22.67;;
6852;SDS011;3465;42.144;24.722;2022-11-15T05:22:23;38.00;;;19.87;;
6852;SDS011;3465;42.144;24.722;2022-11-15T05:24:49;43.90;;;21.10;;
6852;SDS011;3465;42.144;24.722;2022-11-15T05:27:14;44.63;;;20.37;;
6852;SDS011;3465;42.144;24.722;2022-11-15T05:29:39;40.97;;;19.23;;
6852;SDS011;3465;42.144;24.722;2022-11-15T05:32:05;35.07;;;17.70;;
6852;SDS011;3465;42.144;24.722;2022-11-15T05:34:31;34.30;;;17.50;;
6852;SDS011;3465;42.144;24.722;2022-11-15T05:36:57;35.37;;;17.43;;
6852;SDS011;3465;42.144;24.722;2022-11-15T05:39:22;40.50;;;18.47;;
6852;SDS011;3465;42.144;24.722;2022-11-15T05:41:49;35.27;;;18.27;;
6852;SDS011;3465;42.144;24.722;2022-11-15T05:44:21;37.70;;;17.33;;
6852;SDS011;3465;42.144;24.722;2022-11-15T05:46:51;35.40;;;17.33;;
6852;SDS011;3465;42.144;24.722;2022-11-15T05:49:21;40.50;;;17.67;;
6852;SDS011;3465;42.144;24.722;2022-11-15T05:51:51;36.60;;;16.87;;
6852;SDS011;3465;42.144;24.722;2022-11-15T05:54:18;35.40;;;19.17;;
6852;SDS011;3465;42.144;24.722;2022-11-15T05:56:46;46.23;;;20.53;;
6852;SDS011;3465;42.144;24.722;2022-11-15T05:59:11;40.33;;;19.37;;
6852;SDS011;3465;42.144;24.722;2022-11-15T06:01:37;49.13;;;21.47;;
6852;SDS011;3465;42.144;24.722;2022-11-15T06:04:04;43.50;;;19.17;;
6852;SDS011;3465;42.144;24.722;2022-11-15T06:06:29;39.33;;;16.70;;
6852;SDS011;3465;42.144;24.722;2022-11-15T06:08:55;35.73;;;16.43;;
6852;SDS011;3465;42.144;24.722;2022-11-15T06:11:20;50.13;;;18.40;;
6852;SDS011;3465;42.144;24.722;2022-11-15T06:13:46;38.27;;;16.50;;
6852;SDS011;3465;42.144;24.722;2022-11-15T06:16:11;34.83;;;16.70;;
6852;SDS011;3465;42.144;24.722;2022-11-15T06:18:37;32.70;;;16.23;;
6852;SDS011;3465;42.144;24.722;2022-11-15T06:21:03;36.10;;;16.73;;
6852;SDS011;3465;42.144;24.722;2022-11-15T06:23:31;34.30;;;16.63;;
6852;SDS011;3465;42.144;24.722;2022-11-15T06:25:58;37.50;;;16.10;;
6852;SDS011;3465;42.144;24.722;2022-11-15T06:28:24;32.23;;;16.50;;
6852;SDS011;3465;42.144;24.722;2022-11-15T06:30:50;35.60;;;16.03;;
6852;SDS011;3465;42.144;24.722;2022-11-15T06:33:15;29.93;;;14.53;;
6852;SDS011;3465;42.144;24.722;2022-11-15T06:35:40;33.73;;;15.07;;
6852;SDS011;3465;42.144;24.722;2022-11-15T06:38:07;27.60;;;14.07;;
6852;SDS011;3465;42.144;24.722;2022-11-15T06:40:34;30.70;;;14.83;;
6852;SDS011;3465;42.144;24.722;2022-11-15T06:43:00;32.17;;;14.73;;
6852;SDS011;3465;42.144;24.722;2022-11-15T06:45:27;28.23;;;14.60;;
6852;SDS011;3465;42.144;24.722;2022-11-15T06:47:52;30.70;;;14.47;;
6852;SDS011;3465;42.144;24.722;2022-11-15T06:50:18;36.77;;;15.33;;
6852;SDS011;3465;42.144;24.722;2022-11-15T06:52:43;29.40;;;14.90;;
6852;SDS011;3465;42.144;24.722;2022-11-15T06:55:08;27.90;;;14.40;;
6852;SDS011;3465;42.144;24.722;2022-11-15T06:57:34;34.63;;;14.40;;
6852;SDS011;3465;42.144;24.722;2022-11-15T07:00:00;40.10;;;14.83;;
6852;SDS011;3465;42.144;24.722;2022-11-15T07:02:27;31.57;;;15.00;;
6852;SDS011;3465;42.144;24.722;2022-11-15T07:04:52;33.23;;;14.80;;
6852;SDS011;3465;42.144;24.722;2022-11-15T07:07:18;42.13;;;14.43;;
6852;SDS011;3465;42.144;24.722;2022-11-15T07:09:43;34.40;;;16.73;;
6852;SDS011;3465;42.144;24.722;2022-11-15T07:12:08;46.50;;;20.07;;
6852;SDS011;3465;42.144;24.722;2022-11-15T07:14:34;58.40;;;17.83;;
6852;SDS011;3465;42.144;24.722;2022-11-15T07:16:59;38.40;;;16.17;;
6852;SDS011;3465;42.144;24.722;2022-11-15T07:19:25;31.13;;;14.60;;
6852;SDS011;3465;42.144;24.722;2022-11-15T07:21:50;28.03;;;13.87;;
6852;SDS011;3465;42.144;24.722;2022-11-15T07:24:15;29.67;;;14.60;;
6852;SDS011;3465;42.144;24.722;2022-11-15T07:26:41;30.17;;;14.73;;
6852;SDS011;3465;42.144;24.722;2022-11-15T07:29:06;28.87;;;13.70;;
6852;SDS011;3465;42.144;24.722;2022-11-15T07:31:32;27.17;;;13.07;;
6852;SDS011;3465;42.144;24.722;2022-11-15T07:33:57;29.90;;;13.50;;
6852;SDS011;3465;42.144;24.722;2022-11-15T07:36:22;31.77;;;14.27;;
6852;SDS011;3465;42.144;24.722;2022-11-15T07:38:48;36.07;;;15.67;;
6852;SDS011;3465;42.144;24.722;2022-11-15T07:41:13;29.53;;;14.13;;
6852;SDS011;3465;42.144;24.722;2022-11-15T07:43:38;28.10;;;13.53;;
6852;SDS011;3465;42.144;24.722;2022-11-15T07:46:05;31.03;;;14.03;;
6852;SDS011;3465;42.144;24.722;2022-11-15T07:48:34;28.37;;;14.47;;
6852;SDS011;3465;42.144;24.722;2022-11-15T07:51:00;30.83;;;14.67;;
6852;SDS011;3465;42.144;24.722;2022-11-15T07:53:25;26.60;;;13.90;;
6852;SDS011;3465;42.144;24.722;2022-11-15T07:55:50;27.30;;;13.83;;
6852;SDS011;3465;42.144;24.722;2022-11-15T07:58:18;33.27;;;15.10;;
6852;SDS011;3465;42.144;24.722;2022-11-15T08:00:43;32.83;;;13.77;;
6852;SDS011;3465;42.144;24.722;2022-11-15T08:03:12;30.10;;;13.57;;
6852;SDS011;3465;42.144;24.722;2022-11-15T08:05:40;24.33;;;13.60;;
6852;SDS011;3465;42.144;24.722;2022-11-15T08:08:07;26.73;;;13.63;;
6852;SDS011;3465;42.144;24.722;2022-11-15T08:10:34;29.43;;;13.97;;
6852;SDS011;3465;42.144;24.722;2022-11-15T08:13:04;28.77;;;13.77;;
6852;SDS011;3465;42.144;24.722;2022-11-15T08:15:31;28.17;;;14.03;;
6852;SDS011;3465;42.144;24.722;2022-11-15T08:17:58;31.87;;;13.97;;
6852;SDS011;3465;42.144;24.722;2022-11-15T08:20:26;26.90;;;14.50;;
6852;SDS011;3465;42.144;24.722;2022-11-15T08:22:58;32.70;;;13.73;;
6852;SDS011;3465;42.144;24.722;2022-11-15T08:25:25;28.13;;;13.63;;
6852;SDS011;3465;42.144;24.722;2022-11-15T08:27:52;31.83;;;15.23;;
6852;SDS011;3465;42.144;24.722;2022-11-15T08:30:21;35.30;;;14.83;;
6852;SDS011;3465;42.144;24.722;2022-11-15T08:32:47;36.03;;;15.63;;
6852;SDS011;3465;42.144;24.722;2022-11-15T08:35:14;34.23;;;14.17;;
6852;SDS011;3465;42.144;24.722;2022-11-15T08:37:39;30.00;;;15.07;;
6852;SDS011;3465;42.144;24.722;2022-11-15T08:40:05;28.17;;;15.03;;
6852;SDS011;3465;42.144;24.722;2022-11-15T08:42:31;26.67;;;13.80;;
6852;SDS011;3465;42.144;24.722;2022-11-15T08:44:58;30.30;;;15.30;;
6852;SDS011;3465;42.144;24.722;2022-11-15T08:47:23;31.83;;;15.50;;
6852;SDS011;3465;42.144;24.722;2022-11-15T08:49:49;30.23;;;14.77;;
6852;SDS011;3465;42.144;24.722;2022-11-15T08:52:14;25.83;;;14.83;;
6852;SDS011;3465;42.144;24.722;2022-11-15T08:54:40;27.03;;;14.60;;
6852;SDS011;3465;42.144;24.722;2022-11-15T08:57:05;31.30;;;15.13;;
6852;SDS011;3465;42.144;24.722;2022-11-15T08:59:31;27.50;;;14.17;;
6852;SDS011;3465;42.144;24.722;2022-11-15T09:01:56;26.97;;;15.60;;
6852;SDS011;3465;42.144;24.722;2022-11-15T09:04:22;28.50;;;15.50;;
6852;SDS011;3465;42.144;24.722;2022-11-15T09:06:47;35.67;;;15.53;;
6852;SDS011;3465;42.144;24.722;2022-11-15T09:09:12;27.53;;;15.77;;
6852;SDS011;3465;42.144;24.722;2022-11-15T09:11:38;28.50;;;15.37;;
6852;SDS011;3465;42.144;24.722;2022-11-15T09:14:03;23.47;;;13.77;;
6852;SDS011;3465;42.144;24.722;2022-11-15T09:16:30;28.00;;;14.67;;
6852;SDS011;3465;42.144;24.722;2022-11-15T09:18:55;28.63;;;14.70;;
6852;SDS011;3465;42.144;24.722;2022-11-15T09:21:21;28.27;;;15.27;;
6852;SDS011;3465;42.144;24.722;2022-11-15T09:23:46;31.63;;;16.23;;
6852;SDS011;3465;42.144;24.722;2022-11-15T09:26:12;38.57;;;18.23;;
6852;SDS011;3465;42.144;24.722;2022-11-15T09:28:38;32.83;;;16.57;;
6852;SDS011;3465;42.144;24.722;2022-11-15T09:31:06;31.47;;;17.33;;
6852;SDS011;3465;42.144;24.722;2022-11-15T09:33:32;31.87;;;17.50;;
6852;SDS011;3465;42.144;24.722;2022-11-15T09:36:02;35.00;;;17.77;;
6852;SDS011;3465;42.144;24.722;2022-11-15T09:38:29;41.83;;;18.63;;
6852;SDS011;3465;42.144;24.722;2022-11-15T09:41:17;30.10;;;17.00;;
6852;SDS011;3465;42.144;24.722;2022-11-15T09:46:54;32.57;;;17.10;;
6852;SDS011;3465;42.144;24.722;2022-11-15T09:49:34;33.37;;;17.23;;
6852;SDS011;3465;42.144;24.722;2022-11-15T09:51:59;31.97;;;16.87;;
6852;SDS011;3465;42.144;24.722;2022-11-15T09:54:27;31.33;;;16.57;;
6852;SDS011;3465;42.144;24.722;2022-11-15T09:56:56;32.70;;;17.90;;
6852;SDS011;3465;42.144;24.722;2022-11-15T09:59:41;35.87;;;18.37;;
6852;SDS011;3465;42.144;24.722;2022-11-15T10:04:41;29.00;;;16.77;;
6852;SDS011;3465;42.144;24.722;2022-11-15T10:12:23;32.50;;;16.37;;
6852;SDS011;3465;42.144;24.722;2022-11-15T10:14:50;33.63;;;17.10;;
6852;SDS011;3465;42.144;24.722;2022-11-15T10:17:36;31.57;;;17.13;;
6852;SDS011;3465;42.144;24.722;2022-11-15T10:20:19;34.67;;;17.93;;
6852;SDS011;3465;42.144;24.722;2022-11-15T10:22:48;31.83;;;17.80;;
6852;SDS011;3465;42.144;24.722;2022-11-15T10:25:23;26.97;;;15.50;;
6852;SDS011;3465;42.144;24.722;2022-11-15T10:30:38;26.33;;;15.23;;
6852;SDS011;3465;42.144;24.722;2022-11-15T10:33:13;29.73;;;16.23;;
6852;SDS011;3465;42.144;24.722;2022-11-15T10:35:42;28.53;;;15.87;;
6852;SDS011;3465;42.144;24.722;2022-11-15T10:38:09;32.03;;;16.73;;
6852;SDS011;3465;42.144;24.722;2022-11-15T10:40:35;27.47;;;15.80;;
6852;SDS011;3465;42.144;24.722;2022-11-15T10:43:12;29.83;;;16.47;;
6852;SDS011;3465;42.144;24.722;2022-11-15T10:45:40;29.47;;;16.17;;
6852;SDS011;3465;42.144;24.722;2022-11-15T10:50:37;27.38;;;16.05;;
6852;SDS011;3465;42.144;24.722;2022-11-15T10:53:04;28.70;;;16.35;;
6852;SDS011;3465;42.144;24.722;2022-11-15T10:55:42;29.77;;;16.10;;
6852;SDS011;3465;42.144;24.722;2022-11-15T10:58:28;28.02;;;16.73;;
6852;SDS011;3465;42.144;24.722;2022-11-15T11:01:31;27.73;;;16.42;;
6852;SDS011;3465;42.144;24.722;2022-11-15T11:04:06;25.95;;;15.40;;
6852;SDS011;3465;42.144;24.722;2022-11-15T11:09:31;33.78;;;17.35;;
6852;SDS011;3465;42.144;24.722;2022-11-15T11:11:58;29.40;;;16.67;;
6852;SDS011;3465;42.144;24.722;2022-11-15T11:14:28;26.60;;;15.25;;
6852;SDS011;3465;42.144;24.722;2022-11-15T11:27:30;25.30;;;16.13;;
6852;SDS011;3465;42.144;24.722;2022-11-15T11:30:10;28.67;;;16.10;;
6852;SDS011;3465;42.144;24.722;2022-11-15T11:35:24;30.40;;;16.97;;
6852;SDS011;3465;42.144;24.722;2022-11-15T11:40:59;30.97;;;16.57;;
6852;SDS011;3465;42.144;24.722;2022-11-15T11:48:52;28.80;;;16.77;;
6852;SDS011;3465;42.144;24.722;2022-11-15T11:51:33;32.90;;;18.37;;
6852;SDS011;3465;42.144;24.722;2022-11-15T11:54:20;38.23;;;19.80;;
6852;SDS011;3465;42.144;24.722;2022-11-15T11:57:02;33.97;;;19.43;;
6852;SDS011;3465;42.144;24.722;2022-11-15T11:59:51;37.27;;;19.63;;
6852;SDS011;3465;42.144;24.722;2022-11-15T12:02:27;34.37;;;19.63;;
6852;SDS011;3465;42.144;24.722;2022-11-15T12:07:54;36.77;;;19.57;;
6852;SDS011;3465;42.144;24.722;2022-11-15T12:10:29;34.60;;;19.57;;
6852;SDS011;3465;42.144;24.722;2022-11-15T12:13:09;34.50;;;18.10;;
6852;SDS011;3465;42.144;24.722;2022-11-15T12:15:57;39.30;;;18.87;;
6852;SDS011;3465;42.144;24.722;2022-11-15T12:18:29;36.10;;;19.33;;
6852;SDS011;3465;42.144;24.722;2022-11-15T12:23:31;35.17;;;19.30;;
6852;SDS011;3465;42.144;24.722;2022-11-15T12:26:04;38.27;;;19.10;;
6852;SDS011;3465;42.144;24.722;2022-11-15T12:28:47;40.23;;;19.80;;
6852;SDS011;3465;42.144;24.722;2022-11-15T12:31:26;35.17;;;18.63;;
6852;SDS011;3465;42.144;24.722;2022-11-15T12:34:13;36.87;;;19.53;;
6852;SDS011;3465;42.144;24.722;2022-11-15T12:36:41;37.50;;;19.27;;
6852;SDS011;3465;42.144;24.722;2022-11-15T12:39:12;41.97;;;19.57;;
6852;SDS011;3465;42.144;24.722;2022-11-15T12:41:39;32.80;;;19.10;;
6852;SDS011;3465;42.144;24.722;2022-11-15T12:44:16;36.57;;;19.57;;
6852;SDS011;3465;42.144;24.722;2022-11-15T12:47:24;32.83;;;18.53;;
6852;SDS011;3465;42.144;24.722;2022-11-15T12:49:51;38.90;;;19.27;;
6852;SDS011;3465;42.144;24.722;2022-11-15T12:52:17;35.03;;;18.80;;
6852;SDS011;3465;42.144;24.722;2022-11-15T12:54:49;33.40;;;18.07;;
6852;SDS011;3465;42.144;24.722;2022-11-15T13:03:12;36.13;;;19.17;;
6852;SDS011;3465;42.144;24.722;2022-11-15T13:10:46;33.83;;;18.07;;
6852;SDS011;3465;42.144;24.722;2022-11-15T13:15:32;39.70;;;18.93;;
6852;SDS011;3465;42.144;24.722;2022-11-15T13:18:19;34.07;;;18.63;;
6852;SDS011;3465;42.144;24.722;2022-11-15T13:20:59;32.80;;;18.47;;
6852;SDS011;3465;42.144;24.722;2022-11-15T13:23:26;36.13;;;18.80;;
6852;SDS011;3465;42.144;24.722;2022-11-15T13:26:06;37.13;;;19.13;;
6852;SDS011;3465;42.144;24.722;2022-11-15T13:28:42;34.43;;;19.60;;
6852;SDS011;3465;42.144;24.722;2022-11-15T13:33:46;35.43;;;19.47;;
6852;SDS011;3465;42.144;24.722;2022-11-15T13:36:15;35.17;;;18.17;;
6852;SDS011;3465;42.144;24.722;2022-11-15T13:38:45;39.40;;;19.53;;
6852;SDS011;3465;42.144;24.722;2022-11-15T13:41:27;34.03;;;18.63;;
6852;SDS011;3465;42.144;24.722;2022-11-15T13:43:55;34.47;;;19.33;;
6852;SDS011;3465;42.144;24.722;2022-11-15T13:46:31;33.00;;;19.17;;
6852;SDS011;3465;42.144;24.722;2022-11-15T13:49:02;36.23;;;19.57;;
6852;SDS011;3465;42.144;24.722;2022-11-15T13:56:37;37.63;;;21.07;;
6852;SDS011;3465;42.144;24.722;2022-11-15T13:59:18;37.13;;;20.60;;
6852;SDS011;3465;42.144;24.722;2022-11-15T14:01:54;40.33;;;21.33;;
6852;SDS011;3465;42.144;24.722;2022-11-15T14:04:22;40.93;;;22.17;;
6852;SDS011;3465;42.144;24.722;2022-11-15T14:06:51;41.63;;;21.60;;
6852;SDS011;3465;42.144;24.722;2022-11-15T14:11:59;40.33;;;21.57;;
6852;SDS011;3465;42.144;24.722;2022-11-15T14:14:26;39.03;;;21.13;;
6852;SDS011;3465;42.144;24.722;2022-11-15T14:16:56;40.53;;;21.90;;
6852;SDS011;3465;42.144;24.722;2022-11-15T14:22:07;41.03;;;20.37;;
6852;SDS011;3465;42.144;24.722;2022-11-15T14:24:42;40.13;;;21.43;;
6852;SDS011;3465;42.144;24.722;2022-11-15T14:29:54;40.13;;;20.60;;
6852;SDS011;3465;42.144;24.722;2022-11-15T14:34:48;40.90;;;22.93;;
6852;SDS011;3465;42.144;24.722;2022-11-15T14:37:39;41.00;;;22.77;;
6852;SDS011;3465;42.144;24.722;2022-11-15T14:40:05;46.27;;;23.20;;
6852;SDS011;3465;42.144;24.722;2022-11-15T14:42:31;38.77;;;21.63;;
6852;SDS011;3465;42.144;24.722;2022-11-15T14:44:57;40.47;;;23.00;;
6852;SDS011;3465;42.144;24.722;2022-11-15T14:47:22;42.13;;;21.53;;
6852;SDS011;3465;42.144;24.722;2022-11-15T14:49:48;43.60;;;21.97;;
6852;SDS011;3465;42.144;24.722;2022-11-15T14:54:53;47.67;;;24.60;;
6852;SDS011;3465;42.144;24.722;2022-11-15T14:57:19;41.23;;;21.17;;
6852;SDS011;3465;42.144;24.722;2022-11-15T14:59:45;39.27;;;21.70;;
6852;SDS011;3465;42.144;24.722;2022-11-15T15:02:14;46.33;;;23.53;;
6852;SDS011;3465;42.144;24.722;2022-11-15T15:04:43;42.47;;;22.77;;
6852;SDS011;3465;42.144;24.722;2022-11-15T15:07:08;43.83;;;23.37;;
6852;SDS011;3465;42.144;24.722;2022-11-15T15:09:34;46.03;;;24.03;;
6852;SDS011;3465;42.144;24.722;2022-11-15T15:11:59;43.70;;;23.33;;
6852;SDS011;3465;42.144;24.722;2022-11-15T15:14:24;45.13;;;24.50;;
6852;SDS011;3465;42.144;24.722;2022-11-15T15:16:50;46.93;;;23.90;;
6852;SDS011;3465;42.144;24.722;2022-11-15T15:19:15;49.03;;;25.37;;
6852;SDS011;3465;42.144;24.722;2022-11-15T15:21:40;49.20;;;24.60;;
6852;SDS011;3465;42.144;24.722;2022-11-15T15:24:07;44.37;;;23.93;;
6852;SDS011;3465;42.144;24.722;2022-11-15T15:26:38;46.33;;;23.50;;
6852;SDS011;3465;42.144;24.722;2022-11-15T15:29:04;51.27;;;24.13;;
6852;SDS011;3465;42.144;24.722;2022-11-15T15:31:29;46.30;;;23.73;;
6852;SDS011;3465;42.144;24.722;2022-11-15T15:33:55;50.23;;;24.70;;
6852;SDS011;3465;42.144;24.722;2022-11-15T15:36:20;48.97;;;24.03;;
6852;SDS011;3465;42.144;24.722;2022-11-15T15:38:45;47.60;;;24.73;;
6852;SDS011;3465;42.144;24.722;2022-11-15T15:41:12;46.40;;;24.70;;
6852;SDS011;3465;42.144;24.722;2022-11-15T15:43:41;52.20;;;25.10;;
6852;SDS011;3465;42.144;24.722;2022-11-15T15:46:11;50.67;;;23.80;;
6852;SDS011;3465;42.144;24.722;2022-11-15T15:48:38;52.43;;;26.23;;
6852;SDS011;3465;42.144;24.722;2022-11-15T15:51:04;48.63;;;25.17;;
6852;SDS011;3465;42.144;24.722;2022-11-15T15:53:30;53.03;;;25.20;;
6852;SDS011;3465;42.144;24.722;2022-11-15T15:55:56;48.13;;;25.43;;
6852;SDS011;3465;42.144;24.722;2022-11-15T15:58:22;52.40;;;25.40;;
6852;SDS011;3465;42.144;24.722;2022-11-15T16:00:47;60.57;;;26.57;;
6852;SDS011;3465;42.144;24.722;2022-11-15T16:03:12;57.30;;;26.23;;
6852;SDS011;3465;42.144;24.722;2022-11-15T16:05:38;47.87;;;25.07;;
6852;SDS011;3465;42.144;24.722;2022-11-15T16:08:03;55.83;;;26.27;;
6852;SDS011;3465;42.144;24.722;2022-11-15T16:10:31;57.70;;;25.77;;
6852;SDS011;3465;42.144;24.722;2022-11-15T16:12:59;56.70;;;26.30;;
6852;SDS011;3465;42.144;24.722;2022-11-15T16:15:26;56.13;;;26.40;;
6852;SDS011;3465;42.144;24.722;2022-11-15T16:17:58;57.77;;;28.00;;
6852;SDS011;3465;42.144;24.722;2022-11-15T16:20:37;54.20;;;26.90;;
6852;SDS011;3465;42.144;24.722;2022-11-15T16:23:13;56.57;;;27.27;;
6852;SDS011;3465;42.144;24.722;2022-11-15T16:25:41;56.23;;;26.57;;
6852;SDS011;3465;42.144;24.722;2022-11-15T16:28:21;53.80;;;25.40;;
6852;SDS011;3465;42.144;24.722;2022-11-15T16:30:49;56.03;;;27.80;;
6852;SDS011;3465;42.144;24.722;2022-11-15T16:33:25;63.33;;;27.80;;
6852;SDS011;3465;42.144;24.722;2022-11-15T16:35:50;57.37;;;25.50;;
6852;SDS011;3465;42.144;24.722;2022-11-15T16:38:16;58.83;;;27.03;;
6852;SDS011;3465;42.144;24.722;2022-11-15T16:40:42;57.37;;;26.83;;
6852;SDS011;3465;42.144;24.722;2022-11-15T16:43:08;52.77;;;26.40;;